SPLP weather

Las Palmas Air Base
Chorrillos, Lima Region, Perú

Public forecast

Using degrees Celsius for public forecast. Weather courtesy of forecast.io.

METAR (pilot weather report)

Closest report is Jorge Chávez International Airport, 10.7 nm (19.9 km) NW. Retrieved 2019/04/24 17:00 UTC (49 minutes ago):

SPJC 241700Z 19009KT 140V230 9999 FEW008 BKN230 25/19 Q1012 NOSIG RMK PP000

TAF (pilot weather forecast)

Closest forecast is Jorge Chávez International Airport, 10.7 nm (19.9 km) NW. Retrieved 2019/04/24 12:39 UTC (5 hours ago):

TAF TAF COR SPJC 241100Z 2412/2512 19006KT 9999 SCT010 SCT100 TX24/2419Z TN20/2511Z TEMPO 2412/2413 6000 OVC006 FM241600 19011KT CAVOK FM250200 20006KT 9999 FEW010 BKN130